Time;durP1;ratioP1;P1;durP2;ratioP2;P2;SDS_P1;SDS_P2;PMS_P1;PMS_P2;Temp;Humidity;BMP_temperature;BMP_pressure;BME280_temperature;BME280_humidity;BME280_pressure;Samples;Min_cycle;Max_cycle;Signal;HPM_P1;HPM_P2
2021/12/25 00:00:00;;;;;;;2.13;2.03;;;-1.10;96.30;;;;;;4878376;29;20205;-77
2021/12/25 00:02:27;;;;;;;2.73;2.53;;;-1.10;96.30;;;;;;4877946;29;20189;-78
2021/12/25 00:04:52;;;;;;;3.13;2.83;;;-1.10;96.30;;;;;;4876646;29;20194;-76
2021/12/25 00:07:18;;;;;;;2.67;2.33;;;-1.10;96.30;;;;;;4877728;29;20466;-77
2021/12/25 00:09:43;;;;;;;2.50;2.30;;;-1.10;96.30;;;;;;4876686;29;20248;-76
2021/12/25 00:12:09;;;;;;;3.13;2.60;;;-1.10;96.30;;;;;;4877934;29;20204;-76
2021/12/25 00:14:35;;;;;;;2.40;2.20;;;-1.10;96.30;;;;;;4880010;29;20200;-77
2021/12/25 00:17:00;;;;;;;3.47;3.17;;;-1.10;96.30;;;;;;4879859;29;20922;-77
2021/12/25 00:19:26;;;;;;;2.60;2.30;;;-1.10;96.30;;;;;;4881170;29;20551;-76
2021/12/25 00:21:52;;;;;;;3.20;2.90;;;-1.10;96.30;;;;;;4880865;29;20243;-77
2021/12/25 00:24:18;;;;;;;3.40;3.10;;;-1.10;96.30;;;;;;4880968;29;20235;-76
2021/12/25 00:26:54;;;;;;;3.07;2.83;;;-1.10;96.30;;;;;;4880903;29;20677;-76
2021/12/25 00:29:38;;;;;;;2.63;2.43;;;-1.10;96.30;;;;;;4879949;29;20184;-76
2021/12/25 00:34:50;;;;;;;4.67;2.93;;;-1.10;96.30;;;;;;4851868;29;20422;-77
2021/12/25 00:37:16;;;;;;;3.30;2.80;;;-1.10;96.30;;;;;;4880737;29;20950;-76
2021/12/25 00:39:43;;;;;;;3.47;3.17;;;-1.10;96.30;;;;;;4880789;29;20280;-76
2021/12/25 00:42:10;;;;;;;3.30;3.00;;;-1.10;96.30;;;;;;4880751;29;20193;-77
2021/12/25 00:44:36;;;;;;;4.17;3.40;;;-1.00;96.30;;;;;;4880672;29;20410;-76
2021/12/25 00:47:03;;;;;;;4.20;3.10;;;-1.00;96.30;;;;;;4880598;29;20451;-76
2021/12/25 00:49:28;;;;;;;3.63;3.13;;;-1.00;96.30;;;;;;4880605;29;20426;-76
2021/12/25 00:51:55;;;;;;;4.20;3.80;;;-1.00;96.30;;;;;;4880583;29;20442;-76
2021/12/25 00:54:20;;;;;;;3.63;3.33;;;-0.90;96.30;;;;;;4880445;29;20185;-76
2021/12/25 00:56:46;;;;;;;4.50;3.50;;;-1.00;96.30;;;;;;4878825;29;20419;-76
2021/12/25 00:59:11;;;;;;;4.97;4.53;;;-1.00;96.30;;;;;;4880459;29;20677;-76
2021/12/25 05:04:26;;;;;;;2.80;1.20;;;-2.80;96.30;;;;;;4885622;29;20787;-77
2021/12/25 05:06:52;;;;;;;0.90;0.70;;;-2.80;96.30;;;;;;4880031;29;20425;-76
2021/12/25 05:09:17;;;;;;;1.20;1.10;;;-2.80;96.30;;;;;;4878800;29;20933;-77
2021/12/25 05:11:43;;;;;;;1.33;1.00;;;-2.80;96.30;;;;;;4880248;29;20578;-78
2021/12/25 05:14:09;;;;;;;1.00;0.70;;;-2.80;96.30;;;;;;4877471;29;20248;-77
2021/12/25 05:16:34;;;;;;;0.93;0.80;;;-2.90;96.30;;;;;;4882754;29;20477;-76
2021/12/25 05:19:00;;;;;;;0.90;0.70;;;-2.90;96.30;;;;;;4882056;29;20177;-75
2021/12/25 05:21:26;;;;;;;0.90;0.80;;;-2.90;96.30;;;;;;4884678;29;20214;-75
2021/12/25 05:23:52;;;;;;;0.90;0.70;;;-3.00;96.30;;;;;;4884558;29;20182;-76
2021/12/25 05:26:17;;;;;;;2.30;1.37;;;-3.10;96.30;;;;;;4878790;29;20502;-77
2021/12/25 05:28:46;;;;;;;1.20;0.80;;;-3.20;96.30;;;;;;4879434;29;20454;-76
2021/12/25 05:31:14;;;;;;;1.10;1.00;;;-3.10;96.30;;;;;;4879418;29;20198;-77
2021/12/25 05:33:41;;;;;;;1.40;0.80;;;-3.10;96.30;;;;;;4879470;29;20465;-77
2021/12/25 05:36:08;;;;;;;1.00;0.90;;;-3.30;96.30;;;;;;4877547;29;20518;-77
2021/12/25 05:38:34;;;;;;;1.20;1.10;;;-3.20;96.30;;;;;;4878023;29;20426;-76
2021/12/25 05:41:01;;;;;;;0.90;0.80;;;-3.30;96.30;;;;;;4879178;29;20994;-77
2021/12/25 05:43:26;;;;;;;1.00;0.90;;;-3.30;96.30;;;;;;4879388;29;20410;-76
2021/12/25 05:45:52;;;;;;;0.93;0.70;;;-3.30;96.30;;;;;;4878621;29;20418;-76
2021/12/25 05:48:18;;;;;;;1.00;0.80;;;-3.40;96.30;;;;;;4879321;29;20181;-77
2021/12/25 05:50:44;;;;;;;1.10;0.60;;;-3.50;96.30;;;;;;4879232;29;20572;-76
2021/12/25 05:53:10;;;;;;;1.10;0.80;;;-3.60;96.30;;;;;;4879141;29;20915;-78
2021/12/25 05:55:35;;;;;;;1.07;0.90;;;-3.60;96.30;;;;;;4878986;29;20264;-78
2021/12/25 05:58:03;;;;;;;1.00;0.90;;;-3.60;96.30;;;;;;4878514;29;20185;-77
2021/12/25 06:00:30;;;;;;;1.00;0.80;;;-3.70;96.30;;;;;;4877852;29;20292;-77
2021/12/25 06:02:56;;;;;;;1.20;0.90;;;-3.70;96.30;;;;;;4877798;29;20903;-77
2021/12/25 06:05:22;;;;;;;1.07;0.90;;;-3.70;96.30;;;;;;4878779;29;20509;-79
2021/12/25 06:07:47;;;;;;;1.10;0.90;;;-3.70;96.30;;;;;;4878469;29;20250;-77
2021/12/25 06:10:13;;;;;;;1.77;0.93;;;-3.70;96.30;;;;;;4877596;29;20268;-77
2021/12/25 06:12:40;;;;;;;1.40;1.23;;;-3.70;96.30;;;;;;4877264;29;20220;-78
2021/12/25 06:15:10;;;;;;;1.50;1.10;;;-3.80;96.30;;;;;;4877583;29;20193;-77
2021/12/25 06:17:36;;;;;;;1.00;0.90;;;-3.90;96.30;;;;;;4876998;29;20927;-78
2021/12/25 06:20:02;;;;;;;0.97;0.87;;;-3.90;96.30;;;;;;4877492;29;20534;-78
2021/12/25 06:22:28;;;;;;;2.03;0.97;;;-3.90;96.30;;;;;;4878447;29;20258;-78
2021/12/25 06:24:53;;;;;;;1.20;1.10;;;-4.00;96.30;;;;;;4878479;29;20418;-78
2021/12/25 06:27:20;;;;;;;1.27;1.00;;;-4.10;96.30;;;;;;4876990;29;20184;-78
2021/12/25 06:29:46;;;;;;;1.07;0.97;;;-4.00;96.30;;;;;;4877206;29;20272;-78
2021/12/25 06:32:11;;;;;;;1.30;1.20;;;-4.00;96.30;;;;;;4877780;29;20545;-79
2021/12/25 06:34:37;;;;;;;2.00;1.27;;;-4.10;96.30;;;;;;4879663;29;20181;-79
2021/12/25 06:37:03;;;;;;;2.33;1.50;;;-4.00;96.30;;;;;;4878984;29;20205;-79
2021/12/25 06:39:29;;;;;;;2.20;1.23;;;-4.10;96.30;;;;;;4878745;29;20223;-78
2021/12/25 06:41:55;;;;;;;1.23;1.13;;;-4.10;96.30;;;;;;4878437;29;20202;-79
2021/12/25 06:44:23;;;;;;;2.20;1.70;;;-4.10;96.30;;;;;;4880903;29;20419;-79
2021/12/25 06:46:49;;;;;;;2.30;1.47;;;-4.10;96.30;;;;;;4879211;29;20185;-80
2021/12/25 06:49:15;;;;;;;1.53;1.43;;;-4.10;96.30;;;;;;4878620;29;20418;-79
2021/12/25 06:51:41;;;;;;;2.27;1.97;;;-4.00;96.30;;;;;;4877295;29;20437;-78
2021/12/25 06:54:06;;;;;;;1.73;1.40;;;-4.00;96.30;;;;;;4878352;29;20174;-78
2021/12/25 06:56:32;;;;;;;1.70;1.60;;;-4.10;96.30;;;;;;4876420;29;20177;-78
2021/12/25 06:58:57;;;;;;;3.43;1.70;;;-4.20;96.30;;;;;;4877897;29;20269;-79
2021/12/25 07:01:23;;;;;;;2.77;2.10;;;-4.20;96.30;;;;;;4878160;29;20228;-78
2021/12/25 07:03:48;;;;;;;1.70;1.47;;;-4.30;96.30;;;;;;4878455;29;20177;-78
2021/12/25 07:06:15;;;;;;;2.13;1.93;;;-4.30;96.30;;;;;;4868325;29;20201;-79
2021/12/25 07:08:40;;;;;;;1.97;1.57;;;-4.40;96.30;;;;;;4839407;29;20553;-78
2021/12/25 07:11:06;;;;;;;2.93;2.00;;;-4.40;96.30;;;;;;4860682;29;20453;-79
2021/12/25 07:13:31;;;;;;;2.53;1.73;;;-4.50;96.30;;;;;;4866960;29;20553;-79
2021/12/25 07:15:57;;;;;;;4.77;3.00;;;-4.40;96.30;;;;;;4876020;29;20234;-80
2021/12/25 07:18:22;;;;;;;1.97;1.63;;;-4.50;96.30;;;;;;4877561;29;20269;-80
2021/12/25 07:20:50;;;;;;;2.13;1.93;;;-4.50;96.30;;;;;;4876632;29;20216;-80
2021/12/25 07:23:16;;;;;;;3.03;2.23;;;-4.50;96.30;;;;;;4876519;29;20252;-79
2021/12/25 07:25:42;;;;;;;2.03;1.63;;;-4.50;96.30;;;;;;4869395;29;20501;-81
2021/12/25 07:28:09;;;;;;;1.93;1.40;;;-4.40;96.30;;;;;;4862293;29;20514;-81
2021/12/25 07:30:35;;;;;;;3.13;1.97;;;-4.40;96.30;;;;;;4872569;29;20205;-80
2021/12/25 07:33:01;;;;;;;4.80;2.07;;;-4.40;96.30;;;;;;4880496;29;20418;-80
2021/12/25 07:35:27;;;;;;;2.43;1.93;;;-4.40;96.30;;;;;;4880345;29;20953;-78
2021/12/25 07:37:53;;;;;;;7.60;2.70;;;-4.40;96.30;;;;;;4880516;29;20188;-79
2021/12/25 07:40:19;;;;;;;3.07;2.20;;;-4.40;96.30;;;;;;4880485;29;20201;-78
2021/12/25 07:42:44;;;;;;;3.43;2.13;;;-4.50;96.30;;;;;;4880597;29;20414;-78
2021/12/25 07:45:11;;;;;;;4.27;2.77;;;-4.50;96.30;;;;;;4881838;29;20426;-78
2021/12/25 07:47:41;;;;;;;3.40;2.80;;;-4.50;96.30;;;;;;4882072;29;20188;-81
2021/12/25 07:50:09;;;;;;;3.23;2.63;;;-4.50;96.30;;;;;;4881335;29;20518;-80
2021/12/25 07:52:35;;;;;;;3.83;2.70;;;-4.60;96.30;;;;;;4866230;29;20426;-79
2021/12/25 07:55:00;;;;;;;4.57;2.90;;;-4.60;96.30;;;;;;4853050;29;20438;-80
2021/12/25 07:57:26;;;;;;;5.07;2.60;;;-4.60;96.30;;;;;;4861882;29;20669;-80
2021/12/25 07:59:51;;;;;;;3.10;2.60;;;-4.50;96.30;;;;;;4871603;29;20209;-79
2021/12/25 08:02:17;;;;;;;3.00;2.70;;;-4.50;96.30;;;;;;4864397;29;20210;-80
2021/12/25 08:04:42;;;;;;;3.83;2.70;;;-4.50;96.30;;;;;;4873614;29;20174;-79
2021/12/25 08:07:08;;;;;;;4.20;2.90;;;-4.50;96.30;;;;;;4868090;29;20252;-79
2021/12/25 08:09:35;;;;;;;3.30;2.60;;;-4.40;96.30;;;;;;4870427;29;20192;-79
2021/12/25 08:12:02;;;;;;;6.53;3.30;;;-4.30;96.30;;;;;;4873343;29;20276;-79
2021/12/25 08:14:29;;;;;;;3.60;2.63;;;-4.40;96.30;;;;;;4866502;29;20434;-79
2021/12/25 08:16:56;;;;;;;5.97;2.70;;;-4.40;96.30;;;;;;4860096;29;20414;-79
2021/12/25 08:19:23;;;;;;;4.47;2.90;;;-4.50;96.30;;;;;;4867287;29;20422;-79
2021/12/25 08:21:49;;;;;;;2.60;2.40;;;-4.50;96.30;;;;;;4866183;29;21032;-81
2021/12/25 08:24:15;;;;;;;4.37;2.90;;;-4.50;96.30;;;;;;4861668;29;20510;-79
2021/12/25 08:26:41;;;;;;;3.40;2.50;;;-4.40;96.30;;;;;;4864484;29;20502;-80
2021/12/25 08:29:06;;;;;;;3.53;2.87;;;-4.40;96.30;;;;;;4866578;29;20435;-80
2021/12/25 08:31:32;;;;;;;4.87;2.80;;;-4.40;96.30;;;;;;4870203;29;20450;-80
2021/12/25 08:33:57;;;;;;;3.53;2.90;;;-4.40;96.30;;;;;;4866037;29;20183;-80
2021/12/25 08:36:23;;;;;;;3.30;3.00;;;-4.40;96.30;;;;;;4870517;29;20229;-80
2021/12/25 08:38:49;;;;;;;4.90;3.13;;;-4.30;96.30;;;;;;4868022;29;20185;-79
2021/12/25 08:41:14;;;;;;;4.10;3.70;;;-4.10;96.30;;;;;;4867886;29;20217;-79
2021/12/25 08:43:47;;;;;;;7.10;4.53;;;-3.90;96.30;;;;;;4868446;29;20182;-79
2021/12/25 08:46:18;;;;;;;5.50;4.60;;;-3.80;96.30;;;;;;4863084;29;20158;-79
2021/12/25 08:48:45;;;;;;;3.90;2.77;;;-3.60;96.30;;;;;;4867933;29;20415;-79
2021/12/25 08:51:11;;;;;;;5.07;2.67;;;-3.60;96.30;;;;;;4867318;29;20583;-79
2021/12/25 08:53:37;;;;;;;4.87;3.00;;;-3.60;96.30;;;;;;4863977;29;20428;-80
2021/12/25 08:56:03;;;;;;;3.93;3.53;;;-3.50;96.30;;;;;;4867237;29;20873;-80
2021/12/25 08:58:32;;;;;;;3.57;2.67;;;-3.30;96.30;;;;;;4871769;29;20185;-80
2021/12/25 09:01:06;;;;;;;3.40;3.10;;;-3.20;96.30;;;;;;4866779;29;20292;-80
2021/12/25 09:03:32;;;;;;;4.20;2.90;;;-3.30;96.30;;;;;;4865404;29;20507;-79
2021/12/25 09:06:00;;;;;;;2.93;2.37;;;-3.40;96.30;;;;;;4863783;29;20473;-78
2021/12/25 09:08:25;;;;;;;4.63;3.03;;;-3.50;96.30;;;;;;4867761;29;20182;-79
2021/12/25 09:10:52;;;;;;;4.00;2.80;;;-3.40;96.30;;;;;;4868928;29;20442;-78
2021/12/25 09:13:18;;;;;;;3.43;3.03;;;-3.50;96.30;;;;;;4863618;29;20187;-79
2021/12/25 09:15:43;;;;;;;3.43;2.87;;;-3.50;96.30;;;;;;4871882;29;20427;-79
2021/12/25 09:18:09;;;;;;;4.03;3.60;;;-3.50;96.30;;;;;;4866183;29;20205;-79
2021/12/25 09:20:35;;;;;;;4.70;3.33;;;-3.50;96.30;;;;;;4856032;29;20582;-78
2021/12/25 09:23:01;;;;;;;3.90;3.00;;;-3.50;96.30;;;;;;4844437;29;20198;-78
2021/12/25 09:25:27;;;;;;;3.07;2.77;;;-3.60;96.30;;;;;;4862668;29;20422;-78
2021/12/25 09:27:53;;;;;;;6.27;3.47;;;-3.40;96.30;;;;;;4863925;29;20192;-78
2021/12/25 09:30:21;;;;;;;4.00;3.10;;;-3.20;96.30;;;;;;4862336;29;20467;-77
2021/12/25 09:32:46;;;;;;;5.93;3.10;;;-3.20;96.30;;;;;;4860130;29;20427;-77
2021/12/25 09:35:12;;;;;;;5.37;4.20;;;-3.30;96.30;;;;;;4854403;29;20810;-77
2021/12/25 09:37:38;;;;;;;6.60;3.70;;;-3.30;96.30;;;;;;4841634;29;20205;-77
2021/12/25 09:40:06;;;;;;;4.53;3.50;;;-3.30;96.30;;;;;;4861226;29;20201;-78
2021/12/25 09:42:33;;;;;;;5.87;4.70;;;-3.20;96.30;;;;;;4871957;29;20538;-78
2021/12/25 09:44:59;;;;;;;4.93;3.93;;;-3.00;96.30;;;;;;4867332;29;20431;-78
2021/12/25 09:47:25;;;;;;;3.93;3.40;;;-2.90;96.30;;;;;;4857912;29;20514;-78
2021/12/25 09:49:51;;;;;;;4.30;3.80;;;-3.00;96.30;;;;;;4867266;29;20221;-78
2021/12/25 09:52:17;;;;;;;6.97;3.70;;;-3.00;96.30;;;;;;4879006;29;20457;-79
2021/12/25 09:54:42;;;;;;;4.70;2.97;;;-3.10;96.30;;;;;;4880402;29;20192;-78
2021/12/25 09:57:08;;;;;;;4.33;3.77;;;-2.90;96.30;;;;;;4878828;29;20446;-79
2021/12/25 09:59:34;;;;;;;9.63;3.97;;;-2.80;96.30;;;;;;4880391;29;20173;-78
2021/12/25 10:02:01;;;;;;;5.10;3.90;;;-2.90;96.30;;;;;;4879987;29;20457;-78
2021/12/25 10:04:40;;;;;;;5.57;4.27;;;-3.00;96.30;;;;;;4880265;29;20497;-78
2021/12/25 10:07:28;;;;;;;8.13;4.00;;;-2.90;96.30;;;;;;4879698;29;20445;-79
2021/12/25 10:09:54;;;;;;;3.60;2.97;;;-2.70;96.30;;;;;;4879934;29;20432;-78
2021/12/25 10:12:20;;;;;;;4.77;4.20;;;-2.80;96.30;;;;;;4879703;29;20947;-77
2021/12/25 10:14:52;;;;;;;7.40;4.53;;;-2.70;96.30;;;;;;4879946;29;20186;-79
2021/12/25 10:17:21;;;;;;;4.20;3.40;;;-2.50;96.30;;;;;;4879562;29;20174;-79
2021/12/25 10:20:11;;;;;;;9.03;4.10;;;-2.60;96.30;;;;;;4878927;29;21005;-78
2021/12/25 10:22:52;;;;;;;3.93;3.23;;;-2.70;96.30;;;;;;4880565;29;20442;-77
2021/12/25 10:25:17;;;;;;;3.80;3.47;;;-2.90;96.30;;;;;;4880589;29;20418;-78
2021/12/25 10:27:52;;;;;;;5.10;3.43;;;-3.00;96.30;;;;;;4878462;29;20474;-78
2021/12/25 10:30:17;;;;;;;3.60;2.60;;;-3.00;96.30;;;;;;4879663;29;20631;-79
2021/12/25 10:32:43;;;;;;;2.57;2.13;;;-3.20;96.30;;;;;;4878523;29;20465;-79
2021/12/25 10:35:17;;;;;;;3.07;2.57;;;-3.20;96.30;;;;;;4881554;29;20185;-79
2021/12/25 10:37:44;;;;;;;5.10;2.80;;;-3.30;96.30;;;;;;4879135;29;20197;-79
2021/12/25 10:40:31;;;;;;;5.47;3.30;;;-3.30;96.30;;;;;;4879218;29;20462;-79
2021/12/25 10:42:59;;;;;;;3.37;3.07;;;-3.30;96.30;;;;;;4878056;29;20422;-79
2021/12/25 10:45:26;;;;;;;3.80;2.60;;;-3.20;96.30;;;;;;4879284;29;20498;-79
2021/12/25 10:48:10;;;;;;;7.33;3.37;;;-3.20;96.30;;;;;;4877753;29;20786;-79
2021/12/25 10:50:43;;;;;;;4.20;3.40;;;-3.10;96.30;;;;;;4865931;29;20527;-78
2021/12/25 10:53:29;;;;;;;3.27;2.97;;;-3.10;96.30;;;;;;4859262;29;20423;-78
2021/12/25 10:56:06;;;;;;;4.83;2.53;;;-3.10;96.30;;;;;;4859087;29;20415;-78
2021/12/25 10:58:32;;;;;;;3.13;2.73;;;-3.00;96.30;;;;;;4858812;29;20426;-79
2021/12/25 11:00:58;;;;;;;4.90;3.80;;;-3.10;96.30;;;;;;4860218;29;20583;-78
2021/12/25 11:03:34;;;;;;;4.07;3.53;;;-3.20;96.30;;;;;;4859171;29;20197;-78
2021/12/25 11:06:13;;;;;;;5.67;3.67;;;-3.40;96.30;;;;;;4860292;29;20459;-78
2021/12/25 11:08:40;;;;;;;4.53;3.23;;;-3.10;96.30;;;;;;4859117;29;20431;-78
2021/12/25 11:11:14;;;;;;;6.10;4.33;;;-2.90;96.30;;;;;;4860366;29;20447;-78
2021/12/25 11:13:49;;;;;;;5.57;3.40;;;-2.80;96.30;;;;;;4860688;29;20422;-78
2021/12/25 11:16:16;;;;;;;6.03;4.63;;;-2.90;96.30;;;;;;4859502;29;20426;-78
2021/12/25 11:19:08;;;;;;;4.83;3.60;;;-2.90;96.30;;;;;;4859256;29;20435;-78
2021/12/25 11:21:54;;;;;;;6.20;3.70;;;-3.00;96.30;;;;;;4861081;29;20470;-78
2021/12/25 11:24:31;;;;;;;4.10;3.30;;;-3.00;96.30;;;;;;4858190;29;20423;-78
2021/12/25 11:27:00;;;;;;;4.67;4.07;;;-2.90;96.30;;;;;;4858631;29;20911;-78
2021/12/25 11:29:28;;;;;;;5.13;3.50;;;-3.00;96.30;;;;;;4860183;29;20448;-78
2021/12/25 11:31:55;;;;;;;7.20;3.00;;;-3.20;96.30;;;;;;4860014;29;20481;-79
2021/12/25 11:34:22;;;;;;;5.57;2.80;;;-3.20;96.30;;;;;;4859966;29;20422;-78
2021/12/25 11:36:50;;;;;;;10.30;3.50;;;-3.00;96.30;;;;;;4859667;29;20526;-78
2021/12/25 11:39:21;;;;;;;4.57;3.17;;;-2.90;96.30;;;;;;4858104;29;20519;-78
2021/12/25 11:41:48;;;;;;;5.17;3.10;;;-2.90;96.30;;;;;;4840058;29;20511;-78
2021/12/25 11:44:39;;;;;;;5.03;3.10;;;-2.80;96.30;;;;;;4841564;29;20416;-78
2021/12/25 11:47:06;;;;;;;5.37;3.47;;;-2.90;96.30;;;;;;4840054;29;20424;-78
2021/12/25 11:49:33;;;;;;;3.43;2.87;;;-2.90;96.30;;;;;;4841382;29;20435;-78
2021/12/25 11:52:18;;;;;;;4.97;3.00;;;-2.90;96.30;;;;;;4841361;29;20921;-78
2021/12/25 11:55:10;;;;;;;4.30;2.90;;;-2.80;96.30;;;;;;4841775;29;20416;-78
2021/12/25 11:57:51;;;;;;;2.80;2.50;;;-2.80;96.30;;;;;;4841117;29;20431;-78
2021/12/25 12:00:37;;;;;;;4.30;3.40;;;-3.10;96.30;;;;;;4841141;29;20452;-78
2021/12/25 12:03:04;;;;;;;4.50;2.87;;;-2.90;96.30;;;;;;4841184;29;20940;-78
2021/12/25 12:05:32;;;;;;;3.20;2.80;;;-2.70;96.30;;;;;;4839936;29;20522;-78
2021/12/25 12:08:06;;;;;;;6.30;3.97;;;-2.80;96.30;;;;;;4841139;29;20424;-78
2021/12/25 12:10:46;;;;;;;3.10;2.57;;;-2.70;96.30;;;;;;4843011;29;20531;-78
2021/12/25 12:13:21;;;;;;;4.60;3.33;;;-2.80;96.30;;;;;;4843545;29;20427;-78
2021/12/25 12:15:54;;;;;;;4.60;3.20;;;-2.80;96.30;;;;;;4844424;29;20407;-78
2021/12/25 12:18:27;;;;;;;9.20;2.97;;;-3.00;96.30;;;;;;4843694;29;20850;-78
2021/12/25 12:21:04;;;;;;;7.70;2.90;;;-3.00;96.30;;;;;;4843639;29;21007;-78
2021/12/25 12:23:54;;;;;;;4.50;3.40;;;-3.00;96.30;;;;;;4843337;29;20420;-78
2021/12/25 12:26:44;;;;;;;4.13;3.73;;;-3.00;96.30;;;;;;4843046;29;20485;-78
2021/12/25 12:29:11;;;;;;;8.33;3.13;;;-2.80;96.30;;;;;;4844340;29;20423;-78
2021/12/25 12:31:47;;;;;;;5.27;2.93;;;-2.90;96.30;;;;;;4843008;29;20435;-78
2021/12/25 12:34:36;;;;;;;4.13;2.37;;;-2.80;96.30;;;;;;4845134;29;20459;-78
2021/12/25 12:37:13;;;;;;;4.73;2.00;;;-3.10;96.30;;;;;;4880877;29;20433;-78
2021/12/25 12:39:55;;;;;;;7.40;3.03;;;-3.10;96.30;;;;;;4880992;29;20421;-78
2021/12/25 12:45:10;;;;;;;3.87;3.17;;;-3.10;96.30;;;;;;4881354;29;20442;-78
2021/12/25 12:47:35;;;;;;;3.03;2.63;;;-3.10;96.30;;;;;;4880704;29;20922;-78
2021/12/25 12:50:01;;;;;;;3.23;2.60;;;-3.00;96.30;;;;;;4880978;29;20429;-78
2021/12/25 12:52:38;;;;;;;2.20;1.90;;;-2.80;96.30;;;;;;4880795;29;20582;-78
2021/12/25 12:55:11;;;;;;;4.80;2.50;;;-2.80;96.30;;;;;;4879560;29;20234;-78
2021/12/25 12:57:38;;;;;;;5.77;2.67;;;-2.70;96.30;;;;;;4880652;29;20509;-78
2021/12/25 13:00:27;;;;;;;2.40;1.80;;;-2.60;96.30;;;;;;4880753;29;20449;-78
2021/12/25 13:02:56;;;;;;;3.40;2.23;;;-2.90;96.30;;;;;;4880686;29;20403;-78
2021/12/25 13:05:31;;;;;;;5.27;3.23;;;-3.00;96.30;;;;;;4880575;29;20881;-78
2021/12/25 13:08:00;;;;;;;5.70;2.80;;;-2.90;96.30;;;;;;4880521;29;20422;-78
2021/12/25 13:10:38;;;;;;;3.10;2.10;;;-3.10;96.30;;;;;;4880585;29;20410;-78
2021/12/25 13:13:09;;;;;;;5.60;2.40;;;-3.20;96.30;;;;;;4880452;29;20406;-78
2021/12/25 13:15:34;;;;;;;2.80;2.40;;;-3.30;96.30;;;;;;4880484;29;20410;-78
2021/12/25 13:18:03;;;;;;;4.67;2.43;;;-3.10;96.30;;;;;;4880300;29;20428;-78
2021/12/25 13:20:33;;;;;;;2.70;1.90;;;-3.10;96.30;;;;;;4878613;29;20300;-78
2021/12/25 13:23:02;;;;;;;3.70;2.30;;;-3.10;96.30;;;;;;4879525;29;20410;-78
2021/12/25 13:25:27;;;;;;;3.10;2.37;;;-3.00;96.30;;;;;;4880116;29;20437;-77
2021/12/25 13:27:55;;;;;;;2.73;2.40;;;-2.90;96.30;;;;;;4878755;29;20454;-78
2021/12/25 13:30:21;;;;;;;3.43;2.67;;;-3.20;96.30;;;;;;4878806;29;20185;-77
2021/12/25 13:32:47;;;;;;;3.80;2.47;;;-3.30;96.30;;;;;;4880144;29;20524;-78
2021/12/25 13:35:20;;;;;;;8.37;2.80;;;-3.20;96.30;;;;;;4879903;29;20816;-78
2021/12/25 13:37:46;;;;;;;2.67;2.10;;;-3.50;96.30;;;;;;4879757;29;20295;-78
2021/12/25 13:40:14;;;;;;;3.53;1.90;;;-3.70;96.30;;;;;;4878427;29;20905;-78
2021/12/25 13:42:41;;;;;;;2.27;1.97;;;-3.80;96.30;;;;;;4878571;29;20203;-77
2021/12/25 13:45:07;;;;;;;2.90;2.13;;;-3.70;96.30;;;;;;4879864;29;20437;-77
2021/12/25 13:47:34;;;;;;;5.20;2.50;;;-3.70;96.30;;;;;;4878296;29;20943;-78
2021/12/25 13:50:06;;;;;;;3.47;2.30;;;-3.70;96.30;;;;;;4878603;29;20627;-78
2021/12/25 13:52:43;;;;;;;3.80;2.50;;;-3.70;96.30;;;;;;4878336;29;20454;-78
2021/12/25 13:55:14;;;;;;;3.00;2.30;;;-3.80;96.30;;;;;;4879663;29;20398;-77
2021/12/25 13:57:59;;;;;;;8.30;1.77;;;-3.70;96.30;;;;;;4879337;29;20446;-77
2021/12/25 14:00:27;;;;;;;2.20;1.90;;;-3.80;96.30;;;;;;4877930;29;20465;-77
2021/12/25 14:02:57;;;;;;;3.27;2.10;;;-3.90;96.30;;;;;;4879502;29;20415;-78
2021/12/25 14:05:25;;;;;;;4.07;2.27;;;-4.00;96.30;;;;;;4878025;29;20414;-78
2021/12/25 14:07:51;;;;;;;2.77;1.50;;;-4.00;96.30;;;;;;4879233;29;20417;-78
2021/12/25 14:10:28;;;;;;;1.83;1.20;;;-4.10;96.30;;;;;;4879340;29;20410;-77
2021/12/25 14:12:56;;;;;;;2.37;2.03;;;-4.30;96.30;;;;;;4879490;29;20651;-77
2021/12/25 14:15:26;;;;;;;3.10;2.47;;;-4.30;96.30;;;;;;4879146;29;20899;-78
2021/12/25 14:17:51;;;;;;;4.60;1.93;;;-4.40;96.30;;;;;;4877812;29;20509;-77
2021/12/25 14:20:19;;;;;;;4.03;2.87;;;-4.40;96.30;;;;;;4879038;29;21017;-77
2021/12/25 14:22:46;;;;;;;4.93;3.00;;;-4.40;96.30;;;;;;4879301;29;20210;-77
2021/12/25 14:25:21;;;;;;;3.80;2.70;;;-4.40;96.30;;;;;;4877854;29;20450;-77
2021/12/25 14:28:10;;;;;;;2.67;2.03;;;-4.30;96.30;;;;;;4878805;29;20417;-77
2021/12/25 14:30:43;;;;;;;4.87;2.47;;;-4.30;96.30;;;;;;4879064;29;20438;-78
2021/12/25 14:33:17;;;;;;;2.00;1.80;;;-4.50;96.30;;;;;;4877614;29;20457;-77
2021/12/25 14:35:43;;;;;;;3.23;2.50;;;-4.50;96.30;;;;;;4877552;29;20510;-78
2021/12/25 14:38:09;;;;;;;3.20;2.53;;;-4.60;96.30;;;;;;4878936;29;20951;-77
2021/12/25 14:40:41;;;;;;;3.60;2.50;;;-4.60;96.30;;;;;;4878734;29;20678;-77
2021/12/25 14:43:06;;;;;;;5.00;2.93;;;-4.80;96.30;;;;;;4878853;29;20154;-77
2021/12/25 14:45:50;;;;;;;3.53;2.40;;;-4.80;96.30;;;;;;4878704;29;20421;-77
2021/12/25 14:48:29;;;;;;;10.80;2.50;;;-4.80;96.30;;;;;;4877377;29;20540;-77
2021/12/25 14:51:05;;;;;;;2.60;2.00;;;-4.80;96.30;;;;;;4878669;29;20577;-77
2021/12/25 14:53:32;;;;;;;6.00;2.80;;;-4.90;96.30;;;;;;4877465;29;20420;-77
2021/12/25 14:56:05;;;;;;;4.13;2.70;;;-5.10;96.30;;;;;;4878492;29;20440;-77
2021/12/25 14:58:35;;;;;;;3.57;2.80;;;-5.10;96.30;;;;;;4877341;29;20789;-78
2021/12/25 15:01:01;;;;;;;3.37;2.87;;;-5.30;96.30;;;;;;4877247;29;20485;-77
2021/12/25 15:03:27;;;;;;;4.50;3.10;;;-5.60;96.30;;;;;;4879192;29;20415;-77
2021/12/25 15:05:56;;;;;;;3.93;2.70;;;-5.70;96.30;;;;;;4879142;29;20252;-78
2021/12/25 15:08:29;;;;;;;7.13;3.33;;;-5.90;96.30;;;;;;4877945;29;20188;-80
2021/12/25 15:11:04;;;;;;;2.63;2.27;;;-6.00;96.30;;;;;;4877984;29;20987;-78
2021/12/25 15:13:29;;;;;;;6.70;2.70;;;-6.40;96.30;;;;;;4879707;29;20444;-78
2021/12/25 15:15:58;;;;;;;2.03;1.83;;;-6.60;96.30;;;;;;4879637;29;20418;-78
2021/12/25 15:18:30;;;;;;;3.00;2.27;;;-6.70;96.30;;;;;;4879798;29;20174;-78
2021/12/25 15:21:04;;;;;;;4.03;2.40;;;-6.50;96.30;;;;;;4878622;29;21088;-78
2021/12/25 15:23:31;;;;;;;2.60;2.20;;;-6.50;96.30;;;;;;4879719;29;20425;-78
2021/12/25 15:26:15;;;;;;;7.10;3.50;;;-6.50;96.30;;;;;;4879335;29;20414;-78
2021/12/25 15:29:03;;;;;;;5.23;2.67;;;-6.60;96.30;;;;;;4879419;29;20929;-78
2021/12/25 15:31:29;;;;;;;3.03;2.23;;;-6.90;96.30;;;;;;4877867;29;20442;-78
2021/12/25 15:34:00;;;;;;;5.63;2.30;;;-7.10;96.30;;;;;;4878172;29;20422;-78
2021/12/25 15:36:28;;;;;;;5.27;2.80;;;-7.30;96.30;;;;;;4879203;29;20424;-78
2021/12/25 15:38:55;;;;;;;7.77;3.03;;;-7.10;96.30;;;;;;4878150;29;20457;-78
2021/12/25 15:41:21;;;;;;;1.93;1.47;;;-7.00;96.30;;;;;;4879230;29;20470;-78
2021/12/25 15:43:47;;;;;;;4.40;2.57;;;-7.00;96.30;;;;;;4879341;29;20837;-78
2021/12/25 15:46:14;;;;;;;7.70;2.80;;;-6.90;96.30;;;;;;4882356;29;20575;-78
2021/12/25 15:48:40;;;;;;;3.70;2.63;;;-7.10;96.30;;;;;;4881464;29;20448;-78
2021/12/25 15:51:08;;;;;;;5.33;2.80;;;-7.30;96.30;;;;;;4881664;29;20517;-78
2021/12/25 15:53:34;;;;;;;3.13;2.20;;;-7.40;96.30;;;;;;4883108;29;20414;-78
2021/12/25 15:55:59;;;;;;;6.03;2.63;;;-7.50;96.30;;;;;;4882821;29;20524;-78
2021/12/25 15:58:25;;;;;;;3.10;2.40;;;-7.50;96.30;;;;;;4882651;29;20520;-78
2021/12/25 16:00:51;;;;;;;3.20;2.80;;;-7.60;96.30;;;;;;4883698;29;20741;-78
2021/12/25 16:03:17;;;;;;;7.30;4.13;;;-7.60;96.30;;;;;;4886452;29;20526;-78
2021/12/25 16:05:44;;;;;;;6.17;3.97;;;-7.70;96.30;;;;;;4881043;29;20458;-78
2021/12/25 16:08:11;;;;;;;6.10;3.80;;;-7.80;96.30;;;;;;4882689;29;20410;-78
2021/12/25 16:10:37;;;;;;;8.50;4.17;;;-7.80;96.30;;;;;;4881423;29;20442;-78
2021/12/25 16:13:06;;;;;;;5.63;3.70;;;-8.00;96.30;;;;;;4881457;29;20802;-78
2021/12/25 16:15:32;;;;;;;7.57;4.37;;;-8.40;96.30;;;;;;4881225;29;20430;-78
2021/12/25 16:17:58;;;;;;;8.53;5.40;;;-8.90;96.30;;;;;;4881051;29;20436;-78
2021/12/25 16:20:23;;;;;;;7.73;4.70;;;-9.30;96.30;;;;;;4882740;29;20906;-78
2021/12/25 16:22:50;;;;;;;6.13;4.13;;;-9.60;96.30;;;;;;4883449;29;20206;-78
2021/12/25 16:25:16;;;;;;;10.50;5.23;;;-10.30;96.30;;;;;;4881345;29;20429;-78
2021/12/25 16:27:43;;;;;;;5.17;4.00;;;-10.70;96.30;;;;;;4882425;29;20196;-78
2021/12/25 16:30:13;;;;;;;7.00;3.93;;;-10.70;96.30;;;;;;4883837;29;20461;-78
2021/12/25 16:32:38;;;;;;;6.20;4.40;;;-11.00;96.30;;;;;;4883501;29;20931;-78
2021/12/25 16:35:05;;;;;;;5.17;4.30;;;-11.10;96.30;;;;;;4882973;29;20422;-77
2021/12/25 16:37:30;;;;;;;3.93;3.33;;;-11.00;96.30;;;;;;4882034;29;20193;-78
2021/12/25 16:39:56;;;;;;;6.43;3.77;;;-11.20;96.30;;;;;;4882163;29;20461;-78
2021/12/25 16:42:21;;;;;;;6.60;3.37;;;-11.10;96.30;;;;;;4882818;29;20197;-78
2021/12/25 16:44:47;;;;;;;5.70;4.27;;;-11.00;96.30;;;;;;4885233;29;20221;-78
2021/12/25 16:47:13;;;;;;;4.77;2.97;;;-11.00;96.30;;;;;;4884460;29;20189;-78
2021/12/25 16:49:38;;;;;;;6.43;2.73;;;-11.10;96.30;;;;;;4884392;29;20202;-77
2021/12/25 16:52:04;;;;;;;4.00;3.00;;;-11.10;96.30;;;;;;4882871;29;20746;-78
2021/12/25 16:54:31;;;;;;;5.83;3.63;;;-11.10;96.30;;;;;;4880071;29;20277;-78
2021/12/25 16:56:57;;;;;;;5.47;3.23;;;-11.20;96.30;;;;;;4881094;29;20414;-78
2021/12/25 16:59:26;;;;;;;6.60;3.53;;;-11.20;96.30;;;;;;4881373;29;20418;-78
2021/12/25 17:01:52;;;;;;;4.07;2.67;;;-11.30;96.30;;;;;;4881087;29;20485;-78